createdAt,value
2019-02-25T00:00:16.881Z,9.43
2019-02-25T00:02:44.208Z,10.23
2019-02-25T00:05:11.531Z,10.40
2019-02-25T00:07:38.942Z,11.10
2019-02-25T00:10:07.357Z,10.63
2019-02-25T00:12:34.676Z,9.43
2019-02-25T00:15:03.082Z,9.03
2019-02-25T00:17:30.441Z,8.97
2019-02-25T00:19:57.788Z,10.00
2019-02-25T00:22:25.162Z,11.53
2019-02-25T00:24:52.521Z,9.17
2019-02-25T00:27:19.848Z,10.07
2019-02-25T00:29:47.269Z,10.77
2019-02-25T00:32:14.603Z,8.93
2019-02-25T00:34:41.957Z,8.50
2019-02-25T00:37:09.341Z,10.03
2019-02-25T00:39:36.661Z,8.50
2019-02-25T00:42:04.004Z,7.70
2019-02-25T00:44:31.361Z,7.93
2019-02-25T00:46:58.721Z,7.43
2019-02-25T00:49:26.082Z,9.17
2019-02-25T00:51:53.457Z,8.53
2019-02-25T00:54:20.799Z,8.37
2019-02-25T00:56:48.137Z,9.83
2019-02-25T00:59:15.513Z,9.00
2019-02-25T01:01:42.845Z,9.07
2019-02-25T01:04:10.161Z,9.10
2019-02-25T01:06:37.549Z,9.80
2019-02-25T01:09:05.753Z,8.10
2019-02-25T01:11:33.201Z,9.13
2019-02-25T01:14:00.589Z,9.37
2019-02-25T01:16:28.023Z,9.40
2019-02-25T01:18:55.355Z,8.33
2019-02-25T01:21:22.750Z,9.13
2019-02-25T01:23:50.092Z,7.70
2019-02-25T01:26:17.443Z,9.90
2019-02-25T01:28:44.821Z,9.40
2019-02-25T01:31:12.162Z,9.40
2019-02-25T01:33:39.518Z,7.47
2019-02-25T01:36:06.900Z,8.50
2019-02-25T01:38:34.222Z,8.43
2019-02-25T01:41:01.541Z,9.90
2019-02-25T01:43:28.920Z,9.37
2019-02-25T01:45:56.981Z,9.17
2019-02-25T01:48:24.344Z,7.90
2019-02-25T01:50:52.284Z,9.63
2019-02-25T01:53:19.637Z,8.10
2019-02-25T01:55:46.985Z,8.13
2019-02-25T01:58:14.944Z,8.47
2019-02-25T02:00:42.305Z,8.43
2019-02-25T02:03:09.602Z,7.77
2019-02-25T02:05:37.502Z,8.03
2019-02-25T02:08:04.838Z,9.73
2019-02-25T02:10:32.201Z,10.03
2019-02-25T02:12:59.581Z,10.17
2019-02-25T02:15:26.902Z,11.33
2019-02-25T02:17:54.222Z,9.57
2019-02-25T02:20:21.602Z,11.03
2019-02-25T02:22:49.304Z,10.30
2019-02-25T02:25:16.643Z,9.10
2019-02-25T02:27:44.034Z,9.27
2019-02-25T02:30:14.471Z,10.10
2019-02-25T02:32:41.835Z,8.63
2019-02-25T02:35:13.717Z,9.10
2019-02-25T02:37:41.093Z,9.17
2019-02-25T02:40:08.622Z,12.30
2019-02-25T02:42:35.979Z,9.20
2019-02-25T02:45:19.253Z,8.73
2019-02-25T02:47:58.624Z,9.03
2019-02-25T02:50:26.148Z,9.00
2019-02-25T02:52:53.529Z,8.67
2019-02-25T02:55:20.896Z,8.70
2019-02-25T02:57:48.237Z,9.77
2019-02-25T03:00:16.991Z,10.30
2019-02-25T03:02:44.399Z,8.37
2019-02-25T03:05:13.984Z,8.77
2019-02-25T03:07:41.321Z,9.13
2019-02-25T03:10:10.034Z,10.07
2019-02-25T03:12:37.403Z,8.93
2019-02-25T03:15:06.846Z,9.30
2019-02-25T03:17:34.241Z,8.17
2019-02-25T03:20:01.578Z,8.67
2019-02-25T03:22:28.921Z,9.03
2019-02-25T03:24:56.314Z,7.70
2019-02-25T03:27:23.648Z,8.43
2019-02-25T03:29:50.946Z,9.03
2019-02-25T03:32:18.932Z,8.67
2019-02-25T03:34:46.273Z,8.03
2019-02-25T03:37:13.626Z,9.53
2019-02-25T03:39:41.007Z,7.87
2019-02-25T03:42:08.363Z,9.13
2019-02-25T03:44:35.756Z,8.20
2019-02-25T03:47:03.254Z,8.07
2019-02-25T03:49:30.610Z,8.50
2019-02-25T03:51:57.933Z,9.20
2019-02-25T03:54:25.305Z,8.80
2019-02-25T03:56:52.620Z,6.60
2019-02-25T03:59:19.982Z,6.93
2019-02-25T04:01:47.404Z,7.17
2019-02-25T04:04:14.730Z,7.27
2019-02-25T04:06:42.115Z,7.20
2019-02-25T04:09:09.501Z,6.27
2019-02-25T04:11:36.820Z,7.90
2019-02-25T04:14:04.161Z,7.13
2019-02-25T04:16:31.543Z,8.13
2019-02-25T04:18:58.889Z,8.10
2019-02-25T04:21:26.245Z,7.27
2019-02-25T04:23:53.600Z,6.87
2019-02-25T04:26:20.950Z,10.80
2019-02-25T04:28:48.322Z,9.03
2019-02-25T04:31:15.701Z,7.73
2019-02-25T04:33:43.028Z,7.80
2019-02-25T04:36:10.361Z,8.80
2019-02-25T04:38:37.742Z,8.53
2019-02-25T04:41:05.102Z,9.63
2019-02-25T04:43:32.421Z,7.70
2019-02-25T04:45:59.841Z,8.83
2019-02-25T04:48:27.178Z,9.33
2019-02-25T04:50:54.501Z,7.40
2019-02-25T04:53:21.874Z,8.40
2019-02-25T04:55:49.622Z,9.57
2019-02-25T04:58:16.952Z,9.10
2019-02-25T05:00:44.342Z,8.47
2019-02-25T05:03:11.668Z,7.63
2019-02-25T05:05:39.001Z,8.17
2019-02-25T05:08:06.396Z,7.83
2019-02-25T05:10:33.761Z,7.23
2019-02-25T05:13:03.128Z,8.03
2019-02-25T05:15:30.946Z,7.43
2019-02-25T05:17:58.301Z,7.57
2019-02-25T05:20:25.649Z,7.33
2019-02-25T05:22:53.583Z,7.23
2019-02-25T05:25:20.963Z,7.50
2019-02-25T05:27:48.304Z,8.77
2019-02-25T05:30:15.636Z,7.37
2019-02-25T05:32:43.002Z,7.50
2019-02-25T05:35:10.490Z,8.20
2019-02-25T05:37:37.904Z,8.10
2019-02-25T05:40:08.383Z,8.83
2019-02-25T05:42:35.746Z,10.70
2019-02-25T05:45:03.402Z,11.20
2019-02-25T05:47:30.783Z,10.83
2019-02-25T05:49:58.142Z,11.53
2019-02-25T05:52:25.574Z,10.30
2019-02-25T05:54:52.873Z,9.80
2019-02-25T05:57:20.220Z,11.00
2019-02-25T05:59:47.643Z,10.30
2019-02-25T06:02:14.985Z,8.87
2019-02-25T06:04:42.310Z,10.97
2019-02-25T06:07:12.162Z,10.60
2019-02-25T06:09:39.502Z,10.53
2019-02-25T06:12:06.834Z,10.00
2019-02-25T06:14:34.234Z,10.77
2019-02-25T06:17:01.643Z,9.63
2019-02-25T06:19:28.997Z,11.47
2019-02-25T06:21:56.383Z,10.57
2019-02-25T06:24:23.730Z,9.33
2019-02-25T06:26:51.081Z,8.93
2019-02-25T06:29:18.455Z,8.37
2019-02-25T06:31:45.862Z,8.83
2019-02-25T06:34:13.205Z,12.40
2019-02-25T06:36:40.602Z,9.17
2019-02-25T06:39:07.914Z,9.77
2019-02-25T06:41:35.222Z,9.23
2019-02-25T06:44:02.601Z,10.30
2019-02-25T06:46:29.922Z,9.83
2019-02-25T06:48:57.280Z,9.83
2019-02-25T06:51:26.001Z,11.27
2019-02-25T06:53:53.361Z,9.10
2019-02-25T06:56:20.674Z,10.47
2019-02-25T06:58:48.030Z,9.63
2019-02-25T07:01:15.486Z,10.57
2019-02-25T07:03:43.727Z,11.43
2019-02-25T07:06:21.929Z,9.63
2019-02-25T07:08:57.233Z,10.53
2019-02-25T07:11:30.274Z,9.87
2019-02-25T07:14:06.376Z,11.03
2019-02-25T07:16:51.915Z,12.20
2019-02-25T07:19:34.057Z,11.77
2019-02-25T07:22:23.001Z,10.77
2019-02-25T07:25:08.498Z,9.97
2019-02-25T07:27:55.403Z,11.77
2019-02-25T07:30:32.622Z,11.07
2019-02-25T07:33:18.171Z,11.50
2019-02-25T07:36:03.715Z,10.57
2019-02-25T07:38:49.296Z,13.87
2019-02-25T07:41:34.901Z,11.50
2019-02-25T07:44:12.917Z,13.23
2019-02-25T07:47:02.427Z,11.13
2019-02-25T07:49:48.239Z,10.13
2019-02-25T07:52:35.136Z,11.60
2019-02-25T07:55:24.871Z,11.83
2019-02-25T07:58:06.044Z,9.70
2019-02-25T08:00:47.105Z,9.90
2019-02-25T08:03:27.081Z,10.47
2019-02-25T08:06:09.646Z,12.17
2019-02-25T08:08:59.414Z,10.70
2019-02-25T08:11:44.849Z,11.03
2019-02-25T08:14:22.253Z,10.40
2019-02-25T08:17:05.013Z,12.33
2019-02-25T08:20:00.370Z,11.40
2019-02-25T08:22:59.030Z,12.17
2019-02-25T08:25:44.316Z,12.73
2019-02-25T08:28:25.976Z,13.17
2019-02-25T08:31:05.948Z,11.17
2019-02-25T08:34:01.747Z,10.63
2019-02-25T08:37:29.705Z,10.57
2019-02-25T08:41:07.539Z,10.47
2019-02-25T08:43:42.142Z,10.27
2019-02-25T08:46:34.620Z,10.00
2019-02-25T08:49:24.293Z,9.50
2019-02-25T08:51:51.675Z,8.93
2019-02-25T08:54:19.041Z,9.30
2019-02-25T08:56:46.346Z,8.90
2019-02-25T08:59:13.735Z,7.70
2019-02-25T09:01:41.082Z,7.90
2019-02-25T09:04:08.384Z,8.00
2019-02-25T09:06:35.769Z,9.03
2019-02-25T09:09:04.449Z,9.00
2019-02-25T09:11:31.820Z,7.43
2019-02-25T09:13:59.224Z,8.97
2019-02-25T09:16:26.582Z,7.77
2019-02-25T09:18:53.925Z,8.40
2019-02-25T09:21:21.281Z,6.93
2019-02-25T09:23:48.642Z,7.03
2019-02-25T09:26:15.994Z,7.33
2019-02-25T09:28:43.402Z,7.00
2019-02-25T09:31:10.821Z,7.87
2019-02-25T09:33:38.163Z,7.70
2019-02-25T09:36:05.483Z,6.00
2019-02-25T09:38:32.808Z,7.37
2019-02-25T09:41:00.095Z,7.10
2019-02-25T09:43:27.404Z,7.83
2019-02-25T09:45:54.754Z,5.90
2019-02-25T09:48:22.120Z,6.03
2019-02-25T09:50:49.456Z,8.10
2019-02-25T09:53:16.744Z,6.80
2019-02-25T09:55:44.082Z,4.37
2019-02-25T09:58:11.430Z,6.20
2019-02-25T10:00:38.813Z,6.13
2019-02-25T10:03:06.091Z,6.53
2019-02-25T10:05:33.410Z,6.53
2019-02-25T10:08:00.708Z,7.43
2019-02-25T10:10:29.783Z,4.90
2019-02-25T10:12:57.116Z,7.10
2019-02-25T10:15:24.448Z,5.80
2019-02-25T10:17:51.755Z,6.70
2019-02-25T10:20:19.178Z,6.87
2019-02-25T10:22:46.477Z,6.50
2019-02-25T10:25:13.742Z,7.13
2019-02-25T10:27:41.069Z,9.43
2019-02-25T10:30:09.560Z,6.27
2019-02-25T10:32:36.877Z,14.50
2019-02-25T10:35:05.189Z,6.80
2019-02-25T10:37:33.893Z,7.90
2019-02-25T10:40:01.581Z,9.70
2019-02-25T10:42:29.499Z,9.17
2019-02-25T10:44:57.268Z,7.20
2019-02-25T10:47:24.556Z,5.90
2019-02-25T10:49:51.871Z,5.33
2019-02-25T10:52:19.134Z,6.53
2019-02-25T10:54:47.875Z,7.57
2019-02-25T10:57:19.407Z,6.53
2019-02-25T10:59:47.159Z,6.20
2019-02-25T11:02:15.399Z,6.80
2019-02-25T11:04:43.132Z,6.77
2019-02-25T11:07:10.418Z,5.90
2019-02-25T11:09:51.854Z,6.33
2019-02-25T11:12:19.236Z,7.43
2019-02-25T11:14:46.557Z,6.97
2019-02-25T11:17:15.615Z,7.13
2019-02-25T11:19:43.120Z,8.73
2019-02-25T11:22:12.133Z,8.03
2019-02-25T11:24:39.795Z,9.00
2019-02-25T11:27:07.446Z,9.07
2019-02-25T11:29:34.833Z,10.40
2019-02-25T11:32:02.209Z,9.77
2019-02-25T11:34:31.469Z,11.27
2019-02-25T11:36:59.545Z,7.07
2019-02-25T11:39:27.569Z,7.63
2019-02-25T11:41:55.491Z,5.93
2019-02-25T11:44:23.468Z,6.27
2019-02-25T11:46:51.522Z,6.23
2019-02-25T11:49:19.044Z,9.23
2019-02-25T11:51:46.519Z,7.93
2019-02-25T11:54:13.897Z,6.70
2019-02-25T11:56:41.239Z,7.27
2019-02-25T11:59:08.556Z,6.50
2019-02-25T12:01:35.925Z,7.73
2019-02-25T12:04:03.379Z,7.27
2019-02-25T12:06:30.683Z,9.53
2019-02-25T12:08:58.024Z,28.13
2019-02-25T12:11:25.328Z,25.57
2019-02-25T12:13:52.733Z,7.27
2019-02-25T12:16:21.709Z,7.03
2019-02-25T12:18:49.224Z,6.50
2019-02-25T12:21:17.502Z,12.67
2019-02-25T12:23:44.894Z,6.10
2019-02-25T12:26:12.228Z,8.10
2019-02-25T12:28:39.590Z,6.93
2019-02-25T12:31:07.041Z,10.83
2019-02-25T12:33:34.364Z,7.70
2019-02-25T12:36:01.704Z,10.37
2019-02-25T12:38:29.176Z,7.03
2019-02-25T12:40:56.521Z,5.37
2019-02-25T12:43:23.823Z,7.03
2019-02-25T12:45:51.213Z,6.87
2019-02-25T12:48:18.543Z,9.07
2019-02-25T12:50:45.995Z,7.03
2019-02-25T12:53:13.375Z,9.00
2019-02-25T12:55:41.011Z,9.43
2019-02-25T12:58:08.342Z,10.70
2019-02-25T13:00:35.723Z,14.20
2019-02-25T13:03:03.063Z,9.73
2019-02-25T13:05:30.423Z,9.13
2019-02-25T13:07:57.823Z,12.13
2019-02-25T13:10:25.153Z,7.40
2019-02-25T13:12:52.498Z,8.33
2019-02-25T13:15:20.005Z,6.87
2019-02-25T13:17:47.361Z,6.87
2019-02-25T13:20:14.821Z,7.00
2019-02-25T13:22:42.304Z,7.53
2019-02-25T13:25:13.047Z,6.57
2019-02-25T13:27:39.809Z,8.27
2019-02-25T13:30:10.364Z,6.83
2019-02-25T13:32:37.792Z,9.93
2019-02-25T13:35:05.382Z,9.97
2019-02-25T13:37:32.765Z,8.07
2019-02-25T13:40:00.096Z,9.33
2019-02-25T13:42:27.542Z,7.90
2019-02-25T13:44:54.918Z,8.57
2019-02-25T13:47:22.264Z,8.23
2019-02-25T13:49:49.718Z,5.83
2019-02-25T13:52:17.121Z,9.97
2019-02-25T13:54:44.509Z,8.50
2019-02-25T13:57:11.890Z,5.90
2019-02-25T13:59:39.361Z,7.97
2019-02-25T14:02:06.684Z,5.50
2019-02-25T14:04:34.022Z,6.77
2019-02-25T14:07:01.415Z,6.07
2019-02-25T14:09:28.741Z,7.97
2019-02-25T14:11:56.239Z,7.33
2019-02-25T14:14:23.642Z,6.87
2019-02-25T14:16:51.000Z,5.90
2019-02-25T14:19:18.503Z,7.50
2019-02-25T14:21:45.870Z,6.57
2019-02-25T14:24:13.282Z,5.53
2019-02-25T14:26:40.666Z,6.37
2019-02-25T14:29:08.006Z,6.23
2019-02-25T14:31:35.395Z,7.43
2019-02-25T14:34:04.256Z,5.87
2019-02-25T14:36:31.860Z,8.10
2019-02-25T14:39:01.461Z,4.07
2019-02-25T14:41:28.470Z,5.07
2019-02-25T14:43:56.699Z,4.20
2019-02-25T14:46:24.953Z,5.73
2019-02-25T14:48:53.440Z,6.90
2019-02-25T14:51:20.860Z,4.27
2019-02-25T14:53:49.509Z,6.47
2019-02-25T14:56:17.612Z,4.30
2019-02-25T14:58:45.932Z,4.87
2019-02-25T15:01:13.649Z,4.60
2019-02-25T15:03:40.981Z,8.03
2019-02-25T15:06:08.373Z,6.90
2019-02-25T15:08:35.725Z,4.40
2019-02-25T15:11:04.933Z,3.80
2019-02-25T15:13:32.772Z,5.40
2019-02-25T15:16:00.895Z,3.50
2019-02-25T15:18:29.133Z,5.70
2019-02-25T15:20:58.521Z,5.43
2019-02-25T15:23:27.982Z,4.43
2019-02-25T15:26:04.803Z,3.40
2019-02-25T15:28:25.168Z,5.83
2019-02-25T15:30:52.631Z,5.43
2019-02-25T15:33:20.057Z,6.13
2019-02-25T15:35:47.577Z,5.20
2019-02-25T15:38:14.998Z,4.47
2019-02-25T15:40:43.021Z,3.97
2019-02-25T15:43:13.245Z,4.37
2019-02-25T15:45:42.567Z,5.57
2019-02-25T15:48:15.138Z,3.20
2019-02-25T15:50:46.141Z,4.30
2019-02-25T15:53:15.942Z,6.23
2019-02-25T15:55:42.898Z,3.90
2019-02-25T15:58:11.867Z,3.90
2019-02-25T16:00:39.930Z,4.80
2019-02-25T16:03:09.121Z,3.67
2019-02-25T16:05:38.804Z,5.07
2019-02-25T16:08:07.439Z,4.73
2019-02-25T16:10:35.008Z,3.40
2019-02-25T16:13:05.588Z,3.57
2019-02-25T16:15:32.524Z,3.80
2019-02-25T16:18:02.367Z,4.50
2019-02-25T16:20:32.593Z,4.07
2019-02-25T16:23:00.852Z,3.30
2019-02-25T16:25:31.689Z,13.13
2019-02-25T16:27:59.327Z,12.80
2019-02-25T16:30:30.461Z,37.50
2019-02-25T16:32:56.524Z,15.37
2019-02-25T16:35:24.223Z,4.40
2019-02-25T16:37:54.973Z,2.70
2019-02-25T16:40:24.480Z,5.37
2019-02-25T16:42:50.994Z,7.80
2019-02-25T16:45:18.890Z,2.60
2019-02-25T16:47:46.558Z,2.80
2019-02-25T16:50:16.384Z,5.07
2019-02-25T16:52:45.590Z,2.27
2019-02-25T16:55:15.600Z,4.37
2019-02-25T16:57:45.573Z,2.47
2019-02-25T17:00:15.255Z,4.30
2019-02-25T17:02:44.724Z,4.33
2019-02-25T17:05:12.596Z,6.10
2019-02-25T17:07:40.969Z,5.47
2019-02-25T17:10:14.542Z,7.07
2019-02-25T17:12:43.799Z,5.73
2019-02-25T17:15:13.244Z,2.97
2019-02-25T17:17:40.952Z,3.60
2019-02-25T17:20:13.021Z,5.43
2019-02-25T17:22:40.574Z,7.07
2019-02-25T17:25:10.329Z,4.30
2019-02-25T17:27:38.402Z,5.57
2019-02-25T17:30:09.192Z,4.67
2019-02-25T17:32:38.013Z,4.33
2019-02-25T17:35:07.486Z,3.97
2019-02-25T17:37:37.782Z,3.87
2019-02-25T17:40:08.480Z,5.50
2019-02-25T17:42:36.189Z,6.97
2019-02-25T17:45:07.238Z,5.57
2019-02-25T17:47:37.323Z,4.57
2019-02-25T17:50:06.342Z,6.23
2019-02-25T17:52:36.091Z,5.70
2019-02-25T17:55:08.353Z,6.07
2019-02-25T17:57:37.402Z,7.00
2019-02-25T18:00:13.395Z,9.30
2019-02-25T18:02:41.495Z,51.43
2019-02-25T18:05:12.070Z,83.83
2019-02-25T18:07:41.714Z,65.20
2019-02-25T18:10:10.305Z,13.77
2019-02-25T18:12:41.504Z,13.63
2019-02-25T18:15:12.031Z,30.67
2019-02-25T18:17:42.577Z,17.93
2019-02-25T18:20:11.910Z,2.47
2019-02-25T18:22:40.094Z,3.07
2019-02-25T18:25:08.520Z,4.50
2019-02-25T18:27:37.437Z,3.80
2019-02-25T18:30:06.149Z,5.17
2019-02-25T18:32:35.351Z,5.50
2019-02-25T18:35:04.693Z,3.57
2019-02-25T18:37:32.666Z,3.50
2019-02-25T18:40:00.607Z,3.70
2019-02-25T18:42:28.498Z,4.97
2019-02-25T18:44:58.624Z,3.00
2019-02-25T18:47:27.302Z,2.37
2019-02-25T18:49:56.575Z,2.87
2019-02-25T18:52:25.909Z,3.40
2019-02-25T18:54:54.914Z,3.80
2019-02-25T18:57:23.626Z,4.30
2019-02-25T18:59:52.735Z,4.67
2019-02-25T19:02:20.941Z,2.63
2019-02-25T19:04:48.768Z,3.23
2019-02-25T19:07:16.900Z,6.20
2019-02-25T19:09:45.218Z,5.60
2019-02-25T19:12:14.678Z,6.30
2019-02-25T19:14:43.003Z,5.10
2019-02-25T19:17:10.843Z,3.87
2019-02-25T19:19:40.255Z,4.77
2019-02-25T19:22:10.668Z,4.80
2019-02-25T19:24:41.949Z,2.90
2019-02-25T19:27:09.308Z,3.03
2019-02-25T19:29:40.541Z,3.73
2019-02-25T19:32:08.767Z,4.97
2019-02-25T19:34:39.168Z,4.00
2019-02-25T19:37:07.519Z,3.43
2019-02-25T19:39:41.472Z,4.93
2019-02-25T19:42:15.155Z,6.17
2019-02-25T19:44:41.349Z,5.07
2019-02-25T19:47:09.852Z,4.87
2019-02-25T19:49:39.012Z,5.50
2019-02-25T19:52:09.753Z,5.63
2019-02-25T19:54:38.579Z,5.20
2019-02-25T19:57:11.603Z,4.60
2019-02-25T19:59:39.493Z,4.53
2019-02-25T20:02:07.517Z,8.90
2019-02-25T20:04:37.684Z,6.07
2019-02-25T20:07:05.422Z,6.03
2019-02-25T20:09:33.382Z,7.77
2019-02-25T20:12:02.835Z,9.70
2019-02-25T20:14:31.519Z,9.63
2019-02-25T20:17:02.569Z,7.73
2019-02-25T20:19:30.409Z,9.13
2019-02-25T20:21:58.800Z,7.13
2019-02-25T20:24:26.731Z,9.20
2019-02-25T20:26:57.731Z,9.07
2019-02-25T20:29:24.438Z,8.67
2019-02-25T20:31:55.965Z,6.97
2019-02-25T20:34:25.953Z,6.30
2019-02-25T20:36:55.393Z,5.57
2019-02-25T20:39:24.495Z,5.87
2019-02-25T20:41:54.242Z,7.27
2019-02-25T20:44:23.903Z,5.27
2019-02-25T20:46:57.199Z,4.63
2019-02-25T20:49:29.320Z,3.90
2019-02-25T20:51:56.684Z,4.13
2019-02-25T20:54:24.842Z,5.03
2019-02-25T20:56:53.287Z,5.50
2019-02-25T20:59:23.981Z,4.47
2019-02-25T21:01:52.748Z,5.40
2019-02-25T21:04:23.236Z,3.37
2019-02-25T21:06:51.164Z,3.33
2019-02-25T21:09:19.454Z,5.13
2019-02-25T21:11:47.436Z,3.53
2019-02-25T21:14:15.446Z,3.50
2019-02-25T21:16:43.236Z,4.07
2019-02-25T21:19:13.077Z,3.30
2019-02-25T21:21:40.562Z,4.80
2019-02-25T21:24:09.638Z,5.50
2019-02-25T21:26:38.775Z,4.37
2019-02-25T21:29:09.599Z,7.53
2019-02-25T21:31:36.933Z,6.80
2019-02-25T21:34:04.956Z,7.27
2019-02-25T21:36:33.867Z,6.23
2019-02-25T21:39:02.053Z,6.67
2019-02-25T21:41:29.610Z,4.77
2019-02-25T21:43:59.183Z,5.03
2019-02-25T21:46:28.911Z,4.60
2019-02-25T21:48:57.537Z,4.93
2019-02-25T21:51:28.109Z,5.50
2019-02-25T21:53:55.973Z,7.07
2019-02-25T21:56:24.960Z,7.40
2019-02-25T21:58:53.189Z,5.70
2019-02-25T22:01:20.881Z,6.00
2019-02-25T22:03:50.474Z,6.67
2019-02-25T22:06:20.009Z,10.47
2019-02-25T22:08:50.148Z,8.57
2019-02-25T22:11:17.842Z,7.30
2019-02-25T22:13:45.460Z,9.67
2019-02-25T22:16:12.781Z,5.20
2019-02-25T22:18:40.178Z,6.70
2019-02-25T22:21:11.589Z,7.20
2019-02-25T22:23:38.621Z,8.03
2019-02-25T22:26:05.993Z,6.77
2019-02-25T22:28:34.896Z,9.37
2019-02-25T22:31:02.617Z,7.10
2019-02-25T22:33:30.511Z,8.60
2019-02-25T22:35:58.058Z,7.67
2019-02-25T22:38:25.450Z,8.57
2019-02-25T22:40:53.616Z,8.67
2019-02-25T22:43:21.258Z,16.17
2019-02-25T22:45:49.038Z,10.63
2019-02-25T22:48:18.545Z,8.60
2019-02-25T22:50:45.617Z,8.43
2019-02-25T22:53:12.969Z,11.27
2019-02-25T22:55:44.386Z,7.97
2019-02-25T22:58:10.943Z,7.20
2019-02-25T23:00:42.170Z,6.80
2019-02-25T23:03:11.359Z,9.70
2019-02-25T23:05:43.018Z,8.97
2019-02-25T23:08:10.958Z,7.43
2019-02-25T23:10:41.918Z,8.00
2019-02-25T23:13:07.317Z,6.73
2019-02-25T23:15:34.618Z,6.23
2019-02-25T23:18:05.316Z,6.60
2019-02-25T23:20:31.702Z,7.10
2019-02-25T23:23:04.100Z,5.40
2019-02-25T23:25:29.078Z,5.80
2019-02-25T23:27:58.368Z,6.40
2019-02-25T23:30:25.717Z,9.63
2019-02-25T23:32:54.537Z,9.07
2019-02-25T23:35:23.084Z,7.67
2019-02-25T23:37:53.751Z,11.87
2019-02-25T23:40:20.958Z,5.90
2019-02-25T23:42:49.192Z,6.30
2019-02-25T23:45:19.309Z,5.83
2019-02-25T23:47:45.997Z,7.27
2019-02-25T23:50:13.786Z,6.17
2019-02-25T23:52:41.131Z,7.67
2019-02-25T23:55:12.182Z,8.17
2019-02-25T23:57:37.958Z,8.17
